sensor_id;sensor_type;location;lat;lon;timestamp;temperature;humidity
81138;DHT22;70623;50.886;3.892;2023-06-22T00:02:23;20.70;53.70
81138;DHT22;70623;50.886;3.892;2023-06-22T00:04:58;20.80;53.30
81138;DHT22;70623;50.886;3.892;2023-06-22T00:07:24;20.40;55.00
81138;DHT22;70623;50.886;3.892;2023-06-22T00:09:52;20.20;55.90
81138;DHT22;70623;50.886;3.892;2023-06-22T00:12:18;20.50;54.80
81138;DHT22;70623;50.886;3.892;2023-06-22T00:14:45;20.70;53.70
81138;DHT22;70623;50.886;3.892;2023-06-22T00:17:11;20.60;53.50
81138;DHT22;70623;50.886;3.892;2023-06-22T00:19:39;20.10;55.60
81138;DHT22;70623;50.886;3.892;2023-06-22T00:22:05;20.00;56.60
81138;DHT22;70623;50.886;3.892;2023-06-22T00:24:34;20.10;55.70
81138;DHT22;70623;50.886;3.892;2023-06-22T00:26:59;20.10;55.40
81138;DHT22;70623;50.886;3.892;2023-06-22T00:29:25;20.30;54.30
81138;DHT22;70623;50.886;3.892;2023-06-22T00:31:55;20.50;53.80
81138;DHT22;70623;50.886;3.892;2023-06-22T00:34:21;20.40;53.70
81138;DHT22;70623;50.886;3.892;2023-06-22T00:36:49;20.50;53.50
81138;DHT22;70623;50.886;3.892;2023-06-22T00:39:17;20.20;54.70
81138;DHT22;70623;50.886;3.892;2023-06-22T00:41:42;20.40;54.50
81138;DHT22;70623;50.886;3.892;2023-06-22T00:44:08;20.40;54.10
81138;DHT22;70623;50.886;3.892;2023-06-22T00:46:34;20.40;55.50
81138;DHT22;70623;50.886;3.892;2023-06-22T00:49:02;20.20;55.10
81138;DHT22;70623;50.886;3.892;2023-06-22T00:51:30;20.20;54.80
81138;DHT22;70623;50.886;3.892;2023-06-22T00:54:02;20.10;55.40
81138;DHT22;70623;50.886;3.892;2023-06-22T00:56:27;19.80;56.70
81138;DHT22;70623;50.886;3.892;2023-06-22T00:58:58;19.70;57.80
81138;DHT22;70623;50.886;3.892;2023-06-22T01:01:29;19.60;57.90
81138;DHT22;70623;50.886;3.892;2023-06-22T01:03:57;19.70;57.40
81138;DHT22;70623;50.886;3.892;2023-06-22T01:06:31;19.70;57.50
81138;DHT22;70623;50.886;3.892;2023-06-22T01:09:31;19.70;57.60
81138;DHT22;70623;50.886;3.892;2023-06-22T01:12:04;19.70;57.40
81138;DHT22;70623;50.886;3.892;2023-06-22T01:14:47;19.60;57.90
81138;DHT22;70623;50.886;3.892;2023-06-22T01:17:15;19.40;58.80
81138;DHT22;70623;50.886;3.892;2023-06-22T01:19:49;19.80;58.80
81138;DHT22;70623;50.886;3.892;2023-06-22T01:22:24;19.80;57.50
81138;DHT22;70623;50.886;3.892;2023-06-22T01:25:13;19.60;58.20
81138;DHT22;70623;50.886;3.892;2023-06-22T01:28:20;19.50;59.10
81138;DHT22;70623;50.886;3.892;2023-06-22T01:30:49;19.60;58.90
81138;DHT22;70623;50.886;3.892;2023-06-22T01:33:33;19.60;58.80
81138;DHT22;70623;50.886;3.892;2023-06-22T01:36:03;19.80;58.00
81138;DHT22;70623;50.886;3.892;2023-06-22T01:38:29;19.70;58.30
81138;DHT22;70623;50.886;3.892;2023-06-22T01:40:57;19.70;58.50
81138;DHT22;70623;50.886;3.892;2023-06-22T01:43:25;19.70;58.80
81138;DHT22;70623;50.886;3.892;2023-06-22T01:45:52;19.50;59.30
81138;DHT22;70623;50.886;3.892;2023-06-22T01:48:19;19.60;59.30
81138;DHT22;70623;50.886;3.892;2023-06-22T01:50:45;19.60;59.10
81138;DHT22;70623;50.886;3.892;2023-06-22T01:53:11;19.40;59.80
81138;DHT22;70623;50.886;3.892;2023-06-22T01:55:37;19.30;60.60
81138;DHT22;70623;50.886;3.892;2023-06-22T01:58:02;19.30;60.90
81138;DHT22;70623;50.886;3.892;2023-06-22T02:00:31;19.50;59.80
81138;DHT22;70623;50.886;3.892;2023-06-22T02:03:01;19.50;59.80
81138;DHT22;70623;50.886;3.892;2023-06-22T02:05:42;19.40;60.10
81138;DHT22;70623;50.886;3.892;2023-06-22T02:08:15;19.30;60.80
81138;DHT22;70623;50.886;3.892;2023-06-22T02:10:46;19.30;61.10
81138;DHT22;70623;50.886;3.892;2023-06-22T02:13:17;19.20;61.60
81138;DHT22;70623;50.886;3.892;2023-06-22T02:15:43;19.10;61.70
81138;DHT22;70623;50.886;3.892;2023-06-22T02:18:14;19.30;61.60
81138;DHT22;70623;50.886;3.892;2023-06-22T02:20:42;19.30;61.30
81138;DHT22;70623;50.886;3.892;2023-06-22T02:23:08;19.30;61.30
81138;DHT22;70623;50.886;3.892;2023-06-22T02:25:36;19.30;61.30
81138;DHT22;70623;50.886;3.892;2023-06-22T02:28:02;19.20;61.60
81138;DHT22;70623;50.886;3.892;2023-06-22T02:30:30;19.20;63.00
81138;DHT22;70623;50.886;3.892;2023-06-22T02:32:56;19.20;62.00
81138;DHT22;70623;50.886;3.892;2023-06-22T02:35:29;19.10;62.40
81138;DHT22;70623;50.886;3.892;2023-06-22T02:38:01;19.20;62.20
81138;DHT22;70623;50.886;3.892;2023-06-22T02:40:27;19.10;62.40
81138;DHT22;70623;50.886;3.892;2023-06-22T02:42:53;18.90;63.70
81138;DHT22;70623;50.886;3.892;2023-06-22T02:45:19;19.00;63.30
81138;DHT22;70623;50.886;3.892;2023-06-22T02:47:45;19.20;62.30
81138;DHT22;70623;50.886;3.892;2023-06-22T02:50:10;19.30;61.80
81138;DHT22;70623;50.886;3.892;2023-06-22T02:52:36;19.00;63.00
81138;DHT22;70623;50.886;3.892;2023-06-22T02:55:02;19.00;63.20
81138;DHT22;70623;50.886;3.892;2023-06-22T02:57:30;19.20;62.20
81138;DHT22;70623;50.886;3.892;2023-06-22T02:59:55;19.20;61.90
81138;DHT22;70623;50.886;3.892;2023-06-22T03:02:21;19.10;62.20
81138;DHT22;70623;50.886;3.892;2023-06-22T03:04:50;19.00;62.40
81138;DHT22;70623;50.886;3.892;2023-06-22T03:07:15;19.20;61.60
81138;DHT22;70623;50.886;3.892;2023-06-22T03:09:43;19.00;62.20
81138;DHT22;70623;50.886;3.892;2023-06-22T03:12:09;18.80;62.70
81138;DHT22;70623;50.886;3.892;2023-06-22T03:14:37;19.00;61.90
81138;DHT22;70623;50.886;3.892;2023-06-22T03:17:06;18.90;61.90
81138;DHT22;70623;50.886;3.892;2023-06-22T03:19:38;19.00;61.40
81138;DHT22;70623;50.886;3.892;2023-06-22T03:22:04;19.10;60.60
81138;DHT22;70623;50.886;3.892;2023-06-22T03:24:30;19.10;60.70
81138;DHT22;70623;50.886;3.892;2023-06-22T03:26:55;19.10;60.60
81138;DHT22;70623;50.886;3.892;2023-06-22T03:29:22;19.10;60.00
81138;DHT22;70623;50.886;3.892;2023-06-22T03:31:49;19.00;60.70
81138;DHT22;70623;50.886;3.892;2023-06-22T03:34:14;18.80;61.30
81138;DHT22;70623;50.886;3.892;2023-06-22T03:36:42;18.70;61.60
81138;DHT22;70623;50.886;3.892;2023-06-22T03:39:10;18.70;61.70
81138;DHT22;70623;50.886;3.892;2023-06-22T03:41:38;18.80;60.80
81138;DHT22;70623;50.886;3.892;2023-06-22T03:44:04;18.80;60.10
81138;DHT22;70623;50.886;3.892;2023-06-22T03:46:30;18.80;60.40
81138;DHT22;70623;50.886;3.892;2023-06-22T03:48:57;18.80;60.40
81138;DHT22;70623;50.886;3.892;2023-06-22T03:51:23;18.60;61.90
81138;DHT22;70623;50.886;3.892;2023-06-22T03:53:49;18.60;62.10
81138;DHT22;70623;50.886;3.892;2023-06-22T03:56:14;18.90;60.60
81138;DHT22;70623;50.886;3.892;2023-06-22T03:58:45;18.80;60.50
81138;DHT22;70623;50.886;3.892;2023-06-22T04:01:11;19.10;59.60
81138;DHT22;70623;50.886;3.892;2023-06-22T04:03:38;19.10;59.50
81138;DHT22;70623;50.886;3.892;2023-06-22T04:06:03;19.10;59.80
81138;DHT22;70623;50.886;3.892;2023-06-22T04:08:35;19.10;59.80
81138;DHT22;70623;50.886;3.892;2023-06-22T04:11:01;19.40;58.30
81138;DHT22;70623;50.886;3.892;2023-06-22T04:13:32;19.50;56.90
81138;DHT22;70623;50.886;3.892;2023-06-22T04:15:58;19.50;56.90
81138;DHT22;70623;50.886;3.892;2023-06-22T04:18:26;19.50;57.20
81138;DHT22;70623;50.886;3.892;2023-06-22T04:20:52;19.20;57.90
81138;DHT22;70623;50.886;3.892;2023-06-22T04:23:17;19.40;57.50
81138;DHT22;70623;50.886;3.892;2023-06-22T04:25:47;19.50;56.70
81138;DHT22;70623;50.886;3.892;2023-06-22T04:28:13;19.60;56.60
81138;DHT22;70623;50.886;3.892;2023-06-22T04:30:43;19.50;56.60
81138;DHT22;70623;50.886;3.892;2023-06-22T04:33:19;19.30;57.70
81138;DHT22;70623;50.886;3.892;2023-06-22T04:35:45;19.30;58.10
81138;DHT22;70623;50.886;3.892;2023-06-22T04:38:12;19.40;58.30
81138;DHT22;70623;50.886;3.892;2023-06-22T04:40:39;19.40;57.80
81138;DHT22;70623;50.886;3.892;2023-06-22T04:43:05;19.40;57.80
81138;DHT22;70623;50.886;3.892;2023-06-22T04:45:34;19.70;56.60
81138;DHT22;70623;50.886;3.892;2023-06-22T04:48:04;19.90;55.70
81138;DHT22;70623;50.886;3.892;2023-06-22T04:50:29;19.80;56.20
81138;DHT22;70623;50.886;3.892;2023-06-22T04:52:57;19.90;55.80
81138;DHT22;70623;50.886;3.892;2023-06-22T04:55:25;19.80;55.40
81138;DHT22;70623;50.886;3.892;2023-06-22T04:57:51;19.90;55.60
81138;DHT22;70623;50.886;3.892;2023-06-22T05:00:20;19.90;55.50
81138;DHT22;70623;50.886;3.892;2023-06-22T05:02:48;20.00;55.00
81138;DHT22;70623;50.886;3.892;2023-06-22T05:05:17;20.00;55.00
81138;DHT22;70623;50.886;3.892;2023-06-22T05:07:44;19.90;55.70
81138;DHT22;70623;50.886;3.892;2023-06-22T05:10:11;19.70;56.20
81138;DHT22;70623;50.886;3.892;2023-06-22T05:12:40;19.50;57.20
81138;DHT22;70623;50.886;3.892;2023-06-22T05:15:08;19.50;57.10
81138;DHT22;70623;50.886;3.892;2023-06-22T05:17:34;19.50;57.80
81138;DHT22;70623;50.886;3.892;2023-06-22T05:20:02;19.50;57.90
81138;DHT22;70623;50.886;3.892;2023-06-22T05:22:34;19.70;57.60
81138;DHT22;70623;50.886;3.892;2023-06-22T05:25:02;19.90;56.70
81138;DHT22;70623;50.886;3.892;2023-06-22T05:27:27;20.10;57.50
81138;DHT22;70623;50.886;3.892;2023-06-22T05:29:53;20.40;56.50
81138;DHT22;70623;50.886;3.892;2023-06-22T05:32:19;20.50;55.70
81138;DHT22;70623;50.886;3.892;2023-06-22T05:34:45;20.60;56.50
81138;DHT22;70623;50.886;3.892;2023-06-22T05:37:15;20.50;55.70
81138;DHT22;70623;50.886;3.892;2023-06-22T05:39:40;20.40;55.90
81138;DHT22;70623;50.886;3.892;2023-06-22T05:42:07;20.10;58.10
81138;DHT22;70623;50.886;3.892;2023-06-22T05:44:33;20.00;58.10
81138;DHT22;70623;50.886;3.892;2023-06-22T05:46:59;20.10;58.30
81138;DHT22;70623;50.886;3.892;2023-06-22T05:49:25;20.20;57.60
81138;DHT22;70623;50.886;3.892;2023-06-22T05:51:55;20.40;56.70
81138;DHT22;70623;50.886;3.892;2023-06-22T05:54:22;20.50;56.40
81138;DHT22;70623;50.886;3.892;2023-06-22T05:56:48;20.50;57.00
81138;DHT22;70623;50.886;3.892;2023-06-22T05:59:13;20.60;55.70
81138;DHT22;70623;50.886;3.892;2023-06-22T06:01:39;20.50;56.10
81138;DHT22;70623;50.886;3.892;2023-06-22T06:04:05;20.30;57.20
81138;DHT22;70623;50.886;3.892;2023-06-22T06:06:35;20.20;58.20
81138;DHT22;70623;50.886;3.892;2023-06-22T06:09:05;20.20;58.00
81138;DHT22;70623;50.886;3.892;2023-06-22T06:11:32;20.20;57.90
81138;DHT22;70623;50.886;3.892;2023-06-22T06:14:00;20.20;58.20
81138;DHT22;70623;50.886;3.892;2023-06-22T06:16:25;20.30;58.30
81138;DHT22;70623;50.886;3.892;2023-06-22T06:18:53;20.40;58.30
81138;DHT22;70623;50.886;3.892;2023-06-22T06:21:23;20.60;58.40
81138;DHT22;70623;50.886;3.892;2023-06-22T06:23:49;20.70;56.00
81138;DHT22;70623;50.886;3.892;2023-06-22T06:26:18;20.70;56.70
81138;DHT22;70623;50.886;3.892;2023-06-22T06:28:56;20.60;57.30
81138;DHT22;70623;50.886;3.892;2023-06-22T06:31:24;20.70;57.30
81138;DHT22;70623;50.886;3.892;2023-06-22T06:33:54;20.70;57.20
81138;DHT22;70623;50.886;3.892;2023-06-22T06:36:20;20.80;57.40
81138;DHT22;70623;50.886;3.892;2023-06-22T06:38:46;21.00;56.70
81138;DHT22;70623;50.886;3.892;2023-06-22T06:41:16;21.30;55.70
81138;DHT22;70623;50.886;3.892;2023-06-22T06:43:46;21.50;54.90
81138;DHT22;70623;50.886;3.892;2023-06-22T06:46:14;21.30;55.90
81138;DHT22;70623;50.886;3.892;2023-06-22T06:48:40;21.00;56.60
81138;DHT22;70623;50.886;3.892;2023-06-22T06:51:06;20.70;58.10
81138;DHT22;70623;50.886;3.892;2023-06-22T06:53:38;20.40;59.20
81138;DHT22;70623;50.886;3.892;2023-06-22T06:56:06;20.60;59.00
81138;DHT22;70623;50.886;3.892;2023-06-22T06:58:34;20.50;59.10
81138;DHT22;70623;50.886;3.892;2023-06-22T07:00:59;20.70;58.40
81138;DHT22;70623;50.886;3.892;2023-06-22T07:03:28;20.70;58.50
81138;DHT22;70623;50.886;3.892;2023-06-22T07:06:03;20.70;58.90
81138;DHT22;70623;50.886;3.892;2023-06-22T07:08:31;20.80;58.60
81138;DHT22;70623;50.886;3.892;2023-06-22T07:10:57;20.80;58.50
81138;DHT22;70623;50.886;3.892;2023-06-22T07:13:23;20.70;58.70
81138;DHT22;70623;50.886;3.892;2023-06-22T07:15:51;20.70;58.90
81138;DHT22;70623;50.886;3.892;2023-06-22T07:18:19;20.90;58.60
81138;DHT22;70623;50.886;3.892;2023-06-22T07:20:45;21.20;57.50
81138;DHT22;70623;50.886;3.892;2023-06-22T07:23:10;21.40;57.20
81138;DHT22;70623;50.886;3.892;2023-06-22T07:25:36;21.70;55.90
81138;DHT22;70623;50.886;3.892;2023-06-22T07:28:03;21.50;56.50
81138;DHT22;70623;50.886;3.892;2023-06-22T07:30:30;21.40;56.70
81138;DHT22;70623;50.886;3.892;2023-06-22T07:32:59;21.50;56.80
81138;DHT22;70623;50.886;3.892;2023-06-22T07:35:32;21.50;57.10
81138;DHT22;70623;50.886;3.892;2023-06-22T07:37:58;21.30;57.20
81138;DHT22;70623;50.886;3.892;2023-06-22T07:40:24;21.30;58.00
81138;DHT22;70623;50.886;3.892;2023-06-22T07:42:50;21.30;58.10
81138;DHT22;70623;50.886;3.892;2023-06-22T07:45:17;21.10;58.70
81138;DHT22;70623;50.886;3.892;2023-06-22T07:47:45;21.30;58.30
81138;DHT22;70623;50.886;3.892;2023-06-22T07:50:11;21.20;58.80
81138;DHT22;70623;50.886;3.892;2023-06-22T07:52:37;21.40;58.30
81138;DHT22;70623;50.886;3.892;2023-06-22T07:55:05;21.40;57.90
81138;DHT22;70623;50.886;3.892;2023-06-22T07:57:33;21.50;57.50
81138;DHT22;70623;50.886;3.892;2023-06-22T08:00:04;21.70;57.30
81138;DHT22;70623;50.886;3.892;2023-06-22T08:02:37;22.00;56.00
81138;DHT22;70623;50.886;3.892;2023-06-22T08:05:03;22.20;55.60
81138;DHT22;70623;50.886;3.892;2023-06-22T08:07:29;22.30;54.70
81138;DHT22;70623;50.886;3.892;2023-06-22T08:09:58;22.50;54.00
81138;DHT22;70623;50.886;3.892;2023-06-22T08:12:24;22.20;54.80
81138;DHT22;70623;50.886;3.892;2023-06-22T08:14:49;22.00;55.80
81138;DHT22;70623;50.886;3.892;2023-06-22T08:17:15;21.90;56.50
81138;DHT22;70623;50.886;3.892;2023-06-22T08:19:41;21.80;56.60
81138;DHT22;70623;50.886;3.892;2023-06-22T08:22:09;21.60;57.50
81138;DHT22;70623;50.886;3.892;2023-06-22T08:24:34;21.80;57.60
81138;DHT22;70623;50.886;3.892;2023-06-22T08:27:00;21.80;57.40
81138;DHT22;70623;50.886;3.892;2023-06-22T08:29:26;21.80;57.40
81138;DHT22;70623;50.886;3.892;2023-06-22T08:31:54;21.90;57.40
81138;DHT22;70623;50.886;3.892;2023-06-22T08:34:19;22.00;56.70
81138;DHT22;70623;50.886;3.892;2023-06-22T08:36:53;21.90;57.00
81138;DHT22;70623;50.886;3.892;2023-06-22T08:39:22;21.90;57.20
81138;DHT22;70623;50.886;3.892;2023-06-22T08:41:50;22.00;56.90
81138;DHT22;70623;50.886;3.892;2023-06-22T08:44:18;21.90;57.20
81138;DHT22;70623;50.886;3.892;2023-06-22T08:46:45;21.70;58.30
81138;DHT22;70623;50.886;3.892;2023-06-22T08:49:11;21.50;58.90
81138;DHT22;70623;50.886;3.892;2023-06-22T08:51:36;21.30;59.70
81138;DHT22;70623;50.886;3.892;2023-06-22T08:54:02;21.10;60.20
81138;DHT22;70623;50.886;3.892;2023-06-22T08:56:30;21.20;60.40
81138;DHT22;70623;50.886;3.892;2023-06-22T08:58:56;21.30;60.30
81138;DHT22;70623;50.886;3.892;2023-06-22T09:01:24;21.30;60.20
81138;DHT22;70623;50.886;3.892;2023-06-22T09:03:49;21.30;60.30
81138;DHT22;70623;50.886;3.892;2023-06-22T09:06:24;21.40;60.70
81138;DHT22;70623;50.886;3.892;2023-06-22T09:08:50;21.20;61.40
81138;DHT22;70623;50.886;3.892;2023-06-22T09:11:16;21.10;62.30
81138;DHT22;70623;50.886;3.892;2023-06-22T09:13:44;21.00;62.50
81138;DHT22;70623;50.886;3.892;2023-06-22T09:16:14;20.90;63.40
81138;DHT22;70623;50.886;3.892;2023-06-22T09:18:39;20.70;63.90
81138;DHT22;70623;50.886;3.892;2023-06-22T09:21:05;20.60;65.10
81138;DHT22;70623;50.886;3.892;2023-06-22T09:23:31;20.80;66.40
81138;DHT22;70623;50.886;3.892;2023-06-22T09:25:59;20.70;66.00
81138;DHT22;70623;50.886;3.892;2023-06-22T09:28:25;20.90;66.50
81138;DHT22;70623;50.886;3.892;2023-06-22T09:30:51;21.00;66.10
81138;DHT22;70623;50.886;3.892;2023-06-22T09:33:16;21.10;66.20
81138;DHT22;70623;50.886;3.892;2023-06-22T09:35:45;21.10;64.90
81138;DHT22;70623;50.886;3.892;2023-06-22T09:38:18;21.00;66.50
81138;DHT22;70623;50.886;3.892;2023-06-22T09:40:43;21.00;67.00
81138;DHT22;70623;50.886;3.892;2023-06-22T09:43:12;20.90;69.30
81138;DHT22;70623;50.886;3.892;2023-06-22T09:45:37;20.80;68.50
81138;DHT22;70623;50.886;3.892;2023-06-22T09:48:05;20.50;69.50
81138;DHT22;70623;50.886;3.892;2023-06-22T09:50:31;20.40;71.80
81138;DHT22;70623;50.886;3.892;2023-06-22T09:53:01;20.50;70.80
81138;DHT22;70623;50.886;3.892;2023-06-22T09:55:29;20.50;72.40
81138;DHT22;70623;50.886;3.892;2023-06-22T09:57:55;20.70;70.60
81138;DHT22;70623;50.886;3.892;2023-06-22T10:00:21;20.70;70.40
81138;DHT22;70623;50.886;3.892;2023-06-22T10:02:47;20.90;71.10
81138;DHT22;70623;50.886;3.892;2023-06-22T10:05:13;20.90;71.10
81138;DHT22;70623;50.886;3.892;2023-06-22T10:07:39;20.80;73.10
81138;DHT22;70623;50.886;3.892;2023-06-22T10:10:08;20.60;72.00
81138;DHT22;70623;50.886;3.892;2023-06-22T10:12:34;20.50;73.40
81138;DHT22;70623;50.886;3.892;2023-06-22T10:15:00;20.40;75.00
81138;DHT22;70623;50.886;3.892;2023-06-22T10:17:26;20.30;76.60
81138;DHT22;70623;50.886;3.892;2023-06-22T10:19:51;20.10;77.10
81138;DHT22;70623;50.886;3.892;2023-06-22T10:22:19;20.00;76.80
81138;DHT22;70623;50.886;3.892;2023-06-22T10:24:45;20.00;76.90
81138;DHT22;70623;50.886;3.892;2023-06-22T10:27:11;19.90;77.30
81138;DHT22;70623;50.886;3.892;2023-06-22T10:29:39;20.10;77.40
81138;DHT22;70623;50.886;3.892;2023-06-22T10:32:05;19.90;77.00
81138;DHT22;70623;50.886;3.892;2023-06-22T10:34:36;19.90;79.10
81138;DHT22;70623;50.886;3.892;2023-06-22T10:37:04;20.30;73.10
81138;DHT22;70623;50.886;3.892;2023-06-22T10:39:29;20.40;71.60
81138;DHT22;70623;50.886;3.892;2023-06-22T10:41:55;20.40;70.90
81138;DHT22;70623;50.886;3.892;2023-06-22T10:44:21;20.40;71.10
81138;DHT22;70623;50.886;3.892;2023-06-22T10:46:49;20.40;71.50
81138;DHT22;70623;50.886;3.892;2023-06-22T10:49:15;20.50;71.60
81138;DHT22;70623;50.886;3.892;2023-06-22T10:51:43;20.40;73.40
81138;DHT22;70623;50.886;3.892;2023-06-22T10:54:08;20.00;73.90
81138;DHT22;70623;50.886;3.892;2023-06-22T10:56:34;19.90;75.90
81138;DHT22;70623;50.886;3.892;2023-06-22T10:59:00;20.00;75.60
81138;DHT22;70623;50.886;3.892;2023-06-22T11:01:29;20.00;76.90
81138;DHT22;70623;50.886;3.892;2023-06-22T11:03:56;19.90;77.10
81138;DHT22;70623;50.886;3.892;2023-06-22T11:06:22;19.70;77.80
81138;DHT22;70623;50.886;3.892;2023-06-22T11:08:48;19.70;79.00
81138;DHT22;70623;50.886;3.892;2023-06-22T11:11:16;19.70;78.30
81138;DHT22;70623;50.886;3.892;2023-06-22T11:13:43;19.60;78.50
81138;DHT22;70623;50.886;3.892;2023-06-22T11:16:10;19.40;79.10
81138;DHT22;70623;50.886;3.892;2023-06-22T11:18:38;19.50;78.80
81138;DHT22;70623;50.886;3.892;2023-06-22T11:21:04;19.50;78.10
81138;DHT22;70623;50.886;3.892;2023-06-22T11:23:29;19.50;79.80
81138;DHT22;70623;50.886;3.892;2023-06-22T11:25:55;19.60;79.00
81138;DHT22;70623;50.886;3.892;2023-06-22T11:28:21;19.60;79.60
81138;DHT22;70623;50.886;3.892;2023-06-22T11:30:47;19.50;79.90
81138;DHT22;70623;50.886;3.892;2023-06-22T11:33:12;19.50;81.10
81138;DHT22;70623;50.886;3.892;2023-06-22T11:35:38;19.50;82.70
81138;DHT22;70623;50.886;3.892;2023-06-22T11:38:04;19.60;82.20
81138;DHT22;70623;50.886;3.892;2023-06-22T11:40:30;19.80;81.00
81138;DHT22;70623;50.886;3.892;2023-06-22T11:42:56;19.70;81.00
81138;DHT22;70623;50.886;3.892;2023-06-22T11:45:22;19.60;81.70
81138;DHT22;70623;50.886;3.892;2023-06-22T11:47:48;19.60;78.70
81138;DHT22;70623;50.886;3.892;2023-06-22T11:50:14;19.60;80.60
81138;DHT22;70623;50.886;3.892;2023-06-22T11:52:39;19.50;80.70
81138;DHT22;70623;50.886;3.892;2023-06-22T11:55:05;19.50;80.20
81138;DHT22;70623;50.886;3.892;2023-06-22T11:57:38;19.30;75.30
81138;DHT22;70623;50.886;3.892;2023-06-22T12:00:19;19.10;75.20
81138;DHT22;70623;50.886;3.892;2023-06-22T12:02:46;19.10;75.80
81138;DHT22;70623;50.886;3.892;2023-06-22T12:05:13;19.20;76.40
81138;DHT22;70623;50.886;3.892;2023-06-22T12:07:39;19.10;75.50
81138;DHT22;70623;50.886;3.892;2023-06-22T12:10:05;19.20;77.00
81138;DHT22;70623;50.886;3.892;2023-06-22T12:12:31;19.00;75.40
81138;DHT22;70623;50.886;3.892;2023-06-22T12:14:57;19.00;76.60
81138;DHT22;70623;50.886;3.892;2023-06-22T12:17:22;18.80;78.90
81138;DHT22;70623;50.886;3.892;2023-06-22T12:19:48;18.80;77.60
81138;DHT22;70623;50.886;3.892;2023-06-22T12:22:15;18.80;77.80
81138;DHT22;70623;50.886;3.892;2023-06-22T12:24:41;18.90;80.70
81138;DHT22;70623;50.886;3.892;2023-06-22T12:27:06;18.90;80.10
81138;DHT22;70623;50.886;3.892;2023-06-22T12:29:34;18.80;80.10
81138;DHT22;70623;50.886;3.892;2023-06-22T12:32:00;18.60;80.20
81138;DHT22;70623;50.886;3.892;2023-06-22T12:34:26;18.50;81.60
81138;DHT22;70623;50.886;3.892;2023-06-22T12:36:51;18.50;81.40
81138;DHT22;70623;50.886;3.892;2023-06-22T12:39:20;18.60;82.30
81138;DHT22;70623;50.886;3.892;2023-06-22T12:41:45;18.60;82.20
81138;DHT22;70623;50.886;3.892;2023-06-22T12:44:11;18.70;81.40
81138;DHT22;70623;50.886;3.892;2023-06-22T12:46:37;18.70;78.80
81138;DHT22;70623;50.886;3.892;2023-06-22T12:49:04;18.60;80.30
81138;DHT22;70623;50.886;3.892;2023-06-22T12:51:30;18.50;81.70
81138;DHT22;70623;50.886;3.892;2023-06-22T12:53:57;18.40;81.70
81138;DHT22;70623;50.886;3.892;2023-06-22T12:56:25;18.40;82.10
81138;DHT22;70623;50.886;3.892;2023-06-22T12:58:50;18.30;81.90
81138;DHT22;70623;50.886;3.892;2023-06-22T13:01:16;18.30;81.40
81138;DHT22;70623;50.886;3.892;2023-06-22T13:03:43;18.30;82.80
81138;DHT22;70623;50.886;3.892;2023-06-22T13:06:09;18.20;81.50
81138;DHT22;70623;50.886;3.892;2023-06-22T13:08:35;18.20;82.10
81138;DHT22;70623;50.886;3.892;2023-06-22T13:11:01;18.20;81.60
81138;DHT22;70623;50.886;3.892;2023-06-22T13:13:34;18.40;82.80
81138;DHT22;70623;50.886;3.892;2023-06-22T13:16:00;18.50;81.10
81138;DHT22;70623;50.886;3.892;2023-06-22T13:18:25;18.50;82.10
81138;DHT22;70623;50.886;3.892;2023-06-22T13:20:51;18.60;81.50
81138;DHT22;70623;50.886;3.892;2023-06-22T13:23:23;18.70;81.40
81138;DHT22;70623;50.886;3.892;2023-06-22T13:25:49;18.50;80.50
81138;DHT22;70623;50.886;3.892;2023-06-22T13:28:16;18.50;81.50
81138;DHT22;70623;50.886;3.892;2023-06-22T13:30:42;18.50;81.70
81138;DHT22;70623;50.886;3.892;2023-06-22T13:33:13;18.50;82.00
81138;DHT22;70623;50.886;3.892;2023-06-22T13:35:39;18.60;81.80
81138;DHT22;70623;50.886;3.892;2023-06-22T13:38:05;18.50;82.70
81138;DHT22;70623;50.886;3.892;2023-06-22T13:40:30;18.50;81.00
81138;DHT22;70623;50.886;3.892;2023-06-22T13:42:56;18.50;81.00
81138;DHT22;70623;50.886;3.892;2023-06-22T13:45:22;18.50;82.00
81138;DHT22;70623;50.886;3.892;2023-06-22T13:47:50;18.60;81.80
81138;DHT22;70623;50.886;3.892;2023-06-22T13:50:16;18.60;81.90
81138;DHT22;70623;50.886;3.892;2023-06-22T13:52:44;18.60;82.30
81138;DHT22;70623;50.886;3.892;2023-06-22T13:55:10;18.80;82.40
81138;DHT22;70623;50.886;3.892;2023-06-22T13:57:36;18.80;82.30
81138;DHT22;70623;50.886;3.892;2023-06-22T14:00:05;18.80;80.90
81138;DHT22;70623;50.886;3.892;2023-06-22T14:02:31;18.80;80.00
81138;DHT22;70623;50.886;3.892;2023-06-22T14:04:57;18.70;80.20
81138;DHT22;70623;50.886;3.892;2023-06-22T14:07:22;18.70;81.10
81138;DHT22;70623;50.886;3.892;2023-06-22T14:09:50;18.70;80.50
81138;DHT22;70623;50.886;3.892;2023-06-22T14:12:16;18.80;80.90
81138;DHT22;70623;50.886;3.892;2023-06-22T14:14:44;19.00;79.60
81138;DHT22;70623;50.886;3.892;2023-06-22T14:17:10;19.10;80.20
81138;DHT22;70623;50.886;3.892;2023-06-22T14:19:36;19.00;78.30
81138;DHT22;70623;50.886;3.892;2023-06-22T14:22:02;19.10;80.40
81138;DHT22;70623;50.886;3.892;2023-06-22T14:24:28;19.10;80.00
81138;DHT22;70623;50.886;3.892;2023-06-22T14:26:54;19.00;79.80
81138;DHT22;70623;50.886;3.892;2023-06-22T14:29:24;19.00;80.10
81138;DHT22;70623;50.886;3.892;2023-06-22T14:31:50;19.00;79.80
81138;DHT22;70623;50.886;3.892;2023-06-22T14:34:16;19.10;79.40
81138;DHT22;70623;50.886;3.892;2023-06-22T14:36:44;19.10;79.90
81138;DHT22;70623;50.886;3.892;2023-06-22T14:39:12;19.10;80.10
81138;DHT22;70623;50.886;3.892;2023-06-22T14:41:37;19.20;79.60
81138;DHT22;70623;50.886;3.892;2023-06-22T14:44:03;19.30;77.80
81138;DHT22;70623;50.886;3.892;2023-06-22T14:46:29;19.30;77.90
81138;DHT22;70623;50.886;3.892;2023-06-22T14:48:55;19.30;77.00
81138;DHT22;70623;50.886;3.892;2023-06-22T14:51:20;19.40;77.80
81138;DHT22;70623;50.886;3.892;2023-06-22T14:53:46;19.50;79.10
81138;DHT22;70623;50.886;3.892;2023-06-22T14:56:12;19.60;75.90
81138;DHT22;70623;50.886;3.892;2023-06-22T14:58:43;19.80;75.20
81138;DHT22;70623;50.886;3.892;2023-06-22T15:01:11;19.80;75.40
81138;DHT22;70623;50.886;3.892;2023-06-22T15:03:37;19.60;77.00
81138;DHT22;70623;50.886;3.892;2023-06-22T15:06:04;19.60;76.60
81138;DHT22;70623;50.886;3.892;2023-06-22T15:08:30;19.60;77.00
81138;DHT22;70623;50.886;3.892;2023-06-22T15:10:58;19.70;76.40
81138;DHT22;70623;50.886;3.892;2023-06-22T15:13:24;19.60;74.80
81138;DHT22;70623;50.886;3.892;2023-06-22T15:15:52;19.70;75.30
81138;DHT22;70623;50.886;3.892;2023-06-22T15:18:18;19.80;74.00
81138;DHT22;70623;50.886;3.892;2023-06-22T15:20:44;19.90;74.90
81138;DHT22;70623;50.886;3.892;2023-06-22T15:23:14;20.00;73.40
81138;DHT22;70623;50.886;3.892;2023-06-22T15:25:40;20.10;73.20
81138;DHT22;70623;50.886;3.892;2023-06-22T15:28:05;20.30;70.80
81138;DHT22;70623;50.886;3.892;2023-06-22T15:30:31;20.40;71.60
81138;DHT22;70623;50.886;3.892;2023-06-22T15:32:57;20.50;71.50